Latest Weather Observations for Murganella Airstrip

IDD60801

Issued at 9:01 pm CST Friday 22 May 2015 (issued every 30 minutes, with the page automatically refreshed every 10 minutes)

About weather observations | Map of weather stations | Latest weather observations for NT | Other Formats
Station Details ID: 014309 Name: MURGANELLA AIRSTRIP Lat: -11.55 Lon: 132.93 Height: 9.5 m
Data from the previous 72 hours. | See also: Recent months for locations in Northern Territory
Date/Time
CST
Temp
°C
App
Temp
°C
Dew
Point
Rel
Hum
%
Delta-T
°C
Wind Press
QNH
hPa
Press
MSL
hPa
Rain
since 9 am
mm
Dir
 
Spd
km/h
Gust
km/h
Spd
kts
Gust
kts
22/09:00pm 23.8 29.5 23.8 100 0.0 CALM 0 0 0 0 1015.4 1015.3 -
22/08:30pm 24.3 30.3 24.3 100 0.0 CALM 0 0 0 0 1015.2 1015.1 -
22/08:00pm 24.6 30.8 24.6 100 0.0 CALM 0 0 0 0 1014.8 1014.7 -
22/07:30pm 24.9 30.2 23.0 89 1.3 CALM 0 0 0 0 1014.6 1014.5 -
22/07:00pm 25.7 30.5 22.2 81 2.3 CALM 0 0 0 0 1014.2 1014.1 -
22/06:30pm 26.9 31.6 21.9 74 3.3 CALM 0 0 0 0 1013.8 1013.7 -
22/06:00pm 28.1 32.0 21.9 69 4.2 NNE 4 6 2 3 1013.4 1013.3 -
22/05:30pm 29.4 32.6 21.6 63 5.2 ENE 7 13 4 7 1013.0 1012.9 -
22/05:00pm 30.1 33.2 21.5 60 5.8 ENE 7 11 4 6 1013.0 1012.9 -
22/04:00pm 30.6 32.6 20.8 56 6.5 ENE 11 22 6 12 1012.8 1012.7 0.0
22/03:30pm 30.7 32.0 20.9 56 6.5 E 15 22 8 12 1012.5 1012.4 0.0
22/03:00pm 31.3 33.1 21.2 55 6.8 ENE 13 26 7 14 1012.7 1012.6 0.0
22/02:30pm 30.9 31.1 20.2 53 7.1 ENE 19 32 10 17 1012.9 1012.8 0.0
22/02:00pm 31.3 32.8 21.2 55 6.8 E 15 22 8 12 1013.4 1013.3 0.0
22/01:30pm 31.5 33.6 22.5 59 6.1 E 15 26 8 14 1013.8 1013.7 0.0
22/01:00pm 31.0 32.8 22.6 61 5.7 ENE 17 28 9 15 1014.1 1014.0 0.0
22/12:30pm 30.8 32.7 22.1 59 5.9 ENE 15 28 8 15 1014.4 1014.3 0.0
22/12:00pm 31.1 33.0 22.1 58 6.1 ENE 15 26 8 14 1014.9 1014.8 0.0
22/11:30am 31.5 34.4 23.1 61 5.8 E 13 28 7 15 1015.3 1015.2 0.0
22/11:00am 30.3 34.1 24.0 69 4.4 ENE 11 24 6 13 1015.6 1015.5 0.0
22/10:30am 28.7 32.1 24.0 76 3.2 E 13 22 7 12 1015.9 1015.8 0.0
22/10:00am 30.1 33.9 24.7 73 3.8 ESE 13 22 7 12 1016.0 1015.9 0.0
22/09:30am 29.5 33.8 25.5 79 2.8 E 13 20 7 11 1016.0 1015.9 0.0
22/09:00am 28.6 36.2 28.4 99 0.1 ESE 6 11 3 6 1016.0 1015.9 0.0
22/08:30am 26.4 33.0 26.4 100 0.0 SE 4 7 2 4 1015.7 1015.6 0.0
22/08:00am 24.0 29.8 24.0 100 0.0 CALM 0 0 0 0 1015.5 1015.4 0.0
22/07:30am 21.3 25.7 21.3 100 0.0 CALM 0 0 0 0 1015.4 1015.3 0.0
22/07:00am 19.9 23.6 19.9 100 0.0 CALM 0 0 0 0 1015.2 1015.1 0.0
22/06:30am 19.6 23.1 19.6 100 0.0 CALM 0 0 0 0 1014.8 1014.7 0.0
22/06:00am 19.6 23.1 19.6 100 0.0 CALM 0 0 0 0 1014.8 1014.7 0.0
22/05:30am 19.5 23.0 19.5 100 0.0 CALM 0 0 0 0 1014.9 1014.8 0.0
22/05:00am 19.9 23.6 19.9 100 0.0 CALM 0 0 0 0 1014.9 1014.8 0.0
22/04:30am 20.1 23.9 20.1 100 0.0 CALM 0 0 0 0 1014.7 1014.6 0.0
22/04:00am 20.4 24.3 20.4 100 0.0 CALM 0 0 0 0 1014.8 1014.7 0.0
22/03:30am 20.4 24.3 20.4 100 0.0 CALM 0 0 0 0 1014.8 1014.7 0.0
22/03:00am 20.4 24.3 20.4 100 0.0 CALM 0 0 0 0 1014.9 1014.8 0.0
22/02:30am 20.6 24.6 20.6 100 0.0 CALM 0 0 0 0 1014.9 1014.8 0.0
22/02:00am 20.8 24.9 20.8 100 0.0 CALM 0 0 0 0 1014.9 1014.8 0.0
22/01:30am 21.0 25.2 21.0 100 0.0 CALM 0 0 0 0 1015.1 1015.0 0.0
22/01:00am 21.1 25.4 21.1 100 0.0 CALM 0 0 0 0 1015.1 1015.0 0.0
22/12:30am 21.4 25.8 21.4 100 0.0 CALM 0 0 0 0 1015.5 1015.4 0.0
22/12:00am 21.5 26.0 21.5 100 0.0 CALM 0 0 0 0 1015.5 1015.4 0.0
 
Date/Time
CST
Temp
°C
App
Temp
°C
Dew
Point
Rel
Hum
%
Delta-T
°C
Wind Press
QNH
hPa
Press
MSL
hPa
Rain
since 9 am
mm
Dir
 
Spd
km/h
Gust
km/h
Spd
kts
Gust
kts
21/11:30pm 21.7 26.3 21.7 100 0.0 CALM 0 0 0 0 1015.6 1015.5 0.0
21/11:00pm 21.8 26.4 21.8 100 0.0 CALM 0 0 0 0 1015.5 1015.4 0.0
21/10:30pm 22.2 27.0 22.2 100 0.0 CALM 0 0 0 0 1015.3 1015.2 0.0
21/10:00pm 22.4 27.3 22.4 100 0.0 CALM 0 0 0 0 1015.2 1015.1 0.0
21/09:30pm 22.7 27.8 22.7 100 0.0 CALM 0 0 0 0 1015.0 1014.9 0.0
21/09:00pm 23.0 28.3 23.0 100 0.0 CALM 0 0 0 0 1014.7 1014.6 0.0
21/08:30pm 23.5 29.1 23.5 100 0.0 CALM 0 0 0 0 1014.5 1014.4 0.0
21/08:00pm 24.2 30.2 24.2 100 0.0 CALM 0 2 0 1 1014.1 1014.0 0.0
21/07:30pm 24.9 30.9 24.9 100 0.0 NE 2 2 1 1 1014.0 1013.9 0.0
21/07:00pm 25.6 31.4 25.1 97 0.3 NE 4 6 2 3 1013.9 1013.8 0.0
21/06:30pm 26.4 31.6 24.8 91 1.1 NE 6 9 3 5 1013.6 1013.5 0.0
21/06:00pm 27.4 32.0 24.1 82 2.3 NE 7 13 4 7 1013.4 1013.3 0.0
21/05:30pm 28.6 32.6 23.7 75 3.4 NE 9 15 5 8 1013.2 1013.1 0.0
21/05:00pm 29.3 33.0 23.3 70 4.1 NE 9 17 5 9 1013.1 1013.0 0.0
21/04:30pm 30.1 32.9 23.0 65 4.9 NE 13 20 7 11 1013.0 1012.9 0.0
21/04:00pm 31.0 34.1 22.9 62 5.6 ENE 11 19 6 10 1012.9 1012.8 0.0
21/03:30pm 31.3 34.1 22.3 58 6.1 NE 11 20 6 11 1013.1 1013.0 0.0
21/03:00pm 31.3 33.7 22.3 58 6.1 NE 13 20 7 11 1013.2 1013.1 0.0
21/02:30pm 32.4 35.3 22.5 56 6.8 NE 11 22 6 12 1013.5 1013.4 0.0
21/02:00pm 32.2 34.6 22.3 56 6.8 NE 13 17 7 9 1013.8 1013.7 0.0
21/01:30pm 32.4 34.8 21.6 53 7.3 ENE 11 20 6 11 1014.3 1014.2 0.0
21/01:00pm 32.5 35.8 22.6 56 6.8 E 9 19 5 10 1014.8 1014.7 0.0
21/12:30pm 31.6 34.4 22.3 57 6.3 E 11 19 6 10 1015.2 1015.1 0.0
21/12:00pm 32.0 35.5 23.5 60 5.9 ENE 11 17 6 9 1015.5 1015.4 0.0
21/11:30am 30.7 33.3 22.6 62 5.5 E 13 24 7 13 1015.8 1015.7 0.0
21/11:00am 31.3 35.4 23.9 64 5.1 E 9 20 5 11 1016.0 1015.9 0.0
21/10:30am 30.4 35.1 25.5 75 3.5 E 11 17 6 9 1016.3 1016.2 0.0
21/10:00am 29.8 36.1 27.4 87 1.7 ESE 9 15 5 8 1016.6 1016.5 0.0
21/09:30am 28.8 36.7 28.8 100 0.0 SSE 6 9 3 5 1016.7 1016.6 0.0
21/09:00am 25.8 32.0 25.8 100 0.0 SSE 4 7 2 4 1016.6 1016.5 0.0
21/08:30am 25.6 31.3 25.6 100 0.0 S 6 11 3 6 1016.4 1016.3 0.0
21/08:00am 24.1 29.2 24.1 100 0.0 S 4 6 2 3 1016.1 1016.0 0.0
21/07:30am 23.7 29.4 23.7 100 0.0 CALM 0 4 0 2 1015.7 1015.6 0.0
21/07:00am 23.2 28.6 23.2 100 0.0 CALM 0 0 0 0 1015.3 1015.2 0.0
21/06:30am 23.2 28.2 23.2 100 0.0 SSW 2 6 1 3 1015.1 1015.0 0.0
21/06:00am 23.1 27.3 23.1 100 0.0 SSW 6 7 3 4 1015.0 1014.9 0.0
21/05:30am 23.0 27.1 23.0 100 0.0 SSW 6 7 3 4 1014.8 1014.7 0.0
21/05:00am 22.5 26.7 22.5 100 0.0 SSW 4 7 2 4 1014.6 1014.5 0.0
21/04:30am 20.9 24.3 20.9 100 0.0 SSW 4 6 2 3 1014.6 1014.5 0.0
21/04:00am 20.1 23.9 20.1 100 0.0 CALM 0 2 0 1 1014.2 1014.1 0.0
21/03:30am 20.2 24.0 20.2 100 0.0 CALM 0 0 0 0 1014.2 1014.1 0.0
21/03:00am 20.2 24.0 20.2 100 0.0 CALM 0 0 0 0 1014.3 1014.2 0.0
21/02:30am 20.3 24.2 20.3 100 0.0 CALM 0 0 0 0 1014.5 1014.4 0.0
21/02:00am 20.2 24.0 20.2 100 0.0 CALM 0 0 0 0 1014.8 1014.7 0.0
21/01:30am 20.5 24.5 20.5 100 0.0 CALM 0 0 0 0 1014.7 1014.6 0.0
21/01:00am 20.7 24.8 20.7 100 0.0 CALM 0 0 0 0 1014.9 1014.8 0.0
21/12:30am 20.7 24.8 20.7 100 0.0 CALM 0 0 0 0 1015.0 1014.9 0.0
21/12:00am 20.9 25.1 20.9 100 0.0 CALM 0 0 0 0 1014.9 1014.8 0.0
 
Date/Time
CST
Temp
°C
App
Temp
°C
Dew
Point
Rel
Hum
%
Delta-T
°C
Wind Press
QNH
hPa
Press
MSL
hPa
Rain
since 9 am
mm
Dir
 
Spd
km/h
Gust
km/h
Spd
kts
Gust
kts
20/11:30pm 21.1 25.4 21.1 100 0.0 CALM 0 0 0 0 1015.0 1014.9 0.0
20/11:00pm 21.4 25.8 21.4 100 0.0 CALM 0 0 0 0 1015.0 1014.9 0.0
20/10:30pm 21.8 26.4 21.8 100 0.0 CALM 0 0 0 0 1015.0 1014.9 0.0
20/10:00pm 22.1 26.9 22.1 100 0.0 CALM 0 0 0 0 1014.9 1014.8 0.0
20/09:30pm 22.4 27.3 22.4 100 0.0 CALM 0 0 0 0 1014.8 1014.7 0.0
20/09:00pm 22.7 27.8 22.7 100 0.0 CALM 0 0 0 0 1014.8 1014.7 0.0
20/08:30pm 23.2 28.6 23.2 100 0.0 CALM 0 0 0 0 1014.6 1014.5 0.0
20/08:00pm 23.9 29.7 23.9 100 0.0 CALM 0 0 0 0 1014.2 1014.1 0.0
20/07:30pm 24.7 30.4 23.7 94 0.7 CALM 0 0 0 0 1013.9 1013.8 0.0
20/07:00pm 25.7 30.8 23.4 87 1.6 NE 2 2 1 1 1013.5 1013.4 0.0
20/06:30pm 26.9 31.9 23.2 80 2.5 NE 2 4 1 2 1013.3 1013.2 0.0
20/06:00pm 28.0 32.5 22.9 74 3.5 NE 4 7 2 4 1013.2 1013.1 0.0
20/05:30pm 29.2 32.7 22.2 66 4.7 NNE 7 13 4 7 1013.0 1012.9 0.0
20/05:00pm 30.1 32.2 20.9 57 6.1 NNE 11 17 6 9 1012.7 1012.6 0.0
20/04:30pm 31.0 33.5 21.8 58 6.2 NE 11 17 6 9 1012.6 1012.5 0.0
20/04:00pm 31.5 33.8 21.4 55 6.8 NE 11 20 6 11 1012.4 1012.3 0.0
20/03:30pm 32.2 34.4 21.1 52 7.5 NE 11 20 6 11 1012.3 1012.2 0.0
20/03:00pm 32.5 35.3 22.3 55 7.0 NE 11 19 6 10 1012.5 1012.4 0.0
20/02:30pm 32.0 34.6 21.2 52 7.3 ENE 9 22 5 12 1012.8 1012.7 0.0
20/02:00pm 31.9 34.0 21.7 54 6.9 ENE 13 22 7 12 1013.1 1013.0 0.0
20/01:30pm 32.5 36.0 22.9 57 6.6 ENE 9 19 5 10 1013.5 1013.4 0.0
20/01:00pm 31.8 34.5 22.2 56 6.5 ENE 11 20 6 11 1013.9 1013.8 0.0
20/12:30pm 31.4 34.7 23.2 61 5.6 ENE 11 20 6 11 1014.3 1014.2 0.0
20/12:00pm 31.8 35.8 24.4 65 5.2 ENE 11 17 6 9 1014.6 1014.5 0.0
20/11:30am 30.6 34.6 23.8 67 4.7 E 9 15 5 8 1014.9 1014.8 0.0
20/11:00am 30.4 35.0 24.8 72 3.9 E 9 17 5 9 1015.2 1015.1 0.0
20/10:30am 29.7 34.6 25.2 77 3.2 ENE 9 19 5 10 1015.3 1015.2 0.0
20/10:00am 30.2 36.0 26.1 79 2.9 E 7 15 4 8 1015.6 1015.5 0.0
20/09:30am 29.3 36.0 27.1 88 1.6 E 6 17 3 9 1015.5 1015.4 0.0
20/09:00am 27.7 34.6 27.7 100 0.0 ESE 7 11 4 6 1015.6 1015.5 0.0
20/08:30am 26.5 32.8 26.5 100 0.0 SE 6 9 3 5 1015.2 1015.1 0.0
20/08:00am 24.2 29.4 24.2 100 0.0 SSE 4 6 2 3 1015.0 1014.9 0.0
20/07:30am 22.1 26.9 22.1 100 0.0 CALM 0 0 0 0 1014.9 1014.8 0.0
20/07:00am 21.6 25.7 21.6 100 0.0 SSW 2 4 1 2 1014.5 1014.4 0.0
20/06:30am 20.9 25.1 20.9 100 0.0 CALM 0 0 0 0 1014.2 1014.1 0.0
20/06:00am 21.3 25.7 21.3 100 0.0 CALM 0 0 0 0 1014.1 1014.0 0.0
20/05:30am 20.8 24.9 20.8 100 0.0 CALM 0 0 0 0 1014.0 1013.9 0.0
20/05:00am 20.7 24.8 20.7 100 0.0 CALM 0 0 0 0 1013.8 1013.7 0.0
20/04:30am 21.0 25.2 21.0 100 0.0 CALM 0 0 0 0 1013.6 1013.5 0.0
20/04:00am 21.2 25.5 21.2 100 0.0 CALM 0 0 0 0 1013.6 1013.5 0.0
20/03:30am 20.9 25.1 20.9 100 0.0 CALM 0 0 0 0 1013.5 1013.4 0.0
20/03:00am 20.9 25.1 20.9 100 0.0 CALM 0 0 0 0 1013.5 1013.4 0.0
20/02:30am 20.9 25.1 20.9 100 0.0 CALM 0 0 0 0 1013.6 1013.5 0.0
20/02:00am 20.8 24.9 20.8 100 0.0 CALM 0 0 0 0 1013.7 1013.6 0.0
20/01:30am 20.9 25.1 20.9 100 0.0 CALM 0 0 0 0 1013.9 1013.8 0.0
20/01:00am 21.0 25.2 21.0 100 0.0 CALM 0 0 0 0 1013.9 1013.8 0.0
20/12:30am 21.2 25.5 21.2 100 0.0 CALM 0 0 0 0 1014.0 1013.9 0.0
20/12:00am 21.3 25.7 21.3 100 0.0 CALM 0 0 0 0 1013.9 1013.8 0.0
 
Date/Time
CST
Temp
°C
App
Temp
°C
Dew
Point
Rel
Hum
%
Delta-T
°C
Wind Press
QNH
hPa
Press
MSL
hPa
Rain
since 9 am
mm
Dir
 
Spd
km/h
Gust
km/h
Spd
kts
Gust
kts
19/11:30pm 21.5 26.0 21.5 100 0.0 CALM 0 0 0 0 1013.9 1013.8 0.0
19/11:00pm 21.7 26.3 21.7 100 0.0 CALM 0 0 0 0 1013.8 1013.7 0.0
19/10:30pm 22.2 27.0 22.2 100 0.0 CALM 0 0 0 0 1013.8 1013.7 0.0
19/10:00pm 22.4 27.3 22.4 100 0.0 CALM 0 0 0 0 1013.8 1013.7 0.0
19/09:30pm 21.8 26.0 21.8 100 0.0 NNE 2 6 1 3 1013.6 1013.5 0.0

Other Formats:

Comma delimited format used in spreadsheet applications
http://www.bom.gov.au/fwo/IDD60801/IDD60801.94109.axf

JavaScript Object Notation format (JSON) in row-major order
http://www.bom.gov.au/fwo/IDD60801/IDD60801.94109.json